CheckWX is a tool to help pilots better visualize weather data.  It is not intended as a substitute for an official pre-flight weather briefing.

02:07:32 UTC

KHRO TAF
Boone County Airport
Harrison, Arkansas, USA
KHRO 262320Z 2700/2724 32004KT P6SM SCT040 FM270600 VRB03KT 6SM BR FEW080 FM271300 30005KT P6SM FEW250

Jan-27@
00:00 UTC

Jan-27 @ 00:00 UTC

Jan-27@
06:00 UTC

Jan-27 @ 06:00 UTC

KHRO 262320Z 2700/2724 32004KT P6SM SCT040
Wind
  • 320° at 4 KTS
Cloud Levels
  • Scattered at 4,000' AGL

Jan-27@
06:00 UTC

Jan-27 @ 06:00 UTC

Jan-27@
13:00 UTC

Jan-27 @ 13:00 UTC

FM270600 VRB03KT 6SM BR FEW080

From

From Standard forecast or significant change

Wind
  • Variable at 3 KTS
Conditions
Mist
Cloud Levels
  • Few at 8,000' AGL

Jan-27@
13:00 UTC

Jan-27 @ 13:00 UTC

Jan-28@
00:00 UTC

Jan-28 @ 00:00 UTC

FM271300 30005KT P6SM FEW250

From

From Standard forecast or significant change

Wind
  • 300° at 5 KTS
Cloud Levels
  • Few at 25,000' AGL